Cope, SC (29038)

2:32 AM EDT on September 02, 2015 (GMT -0400)
Edisto Electric HQ | | Change Station
CLOSE
Current Station
Personal Weather Station
Location: Bamberg, SC
Elevation: 151 ft
Nearby Weather Stations

Elev 151 ft 33.29 °N, 81.04 °W | Updated 8 seconds ago

Clear
Clear
71.7 °F
Feels Like 77 °F
N
0.0
Wind Variable Wind from WNW
Gusts 0.0 mph

Today
High -- | Low -- °F
--% Chance of Precip.
Yesterday
High -- | Low -- °F
Precip. -- in
6:58 AM 7:48 PM
Waning Gibbous, 83% visible
Pressure 30.08 in
Visibility 7.0 miles
Clouds Clear
Heat Index 77 °F
Dew Point 53 °F
Humidity 51%
Rainfall 0.00 in
Snow Depth Not available.
UV 0 out of 12
Pollen 8.40 out of 12
Air Quality Not available.
Flu Activity Not available.
METAR KOGB 020553Z AUTO 00000KT 7SM CLR 23/22 A3009 RMK AO2 SLP186 T02330222 10283 20233 58001
Pressure 30.08 in
Visibility 7.0 miles
Clouds Clear
Heat Index 77 °F
Dew Point 53 °F
Humidity 51%
Rainfall 0.00 in
Snow Depth Not available.
UV 0 out of 12
Pollen 8.40 out of 12
Air Quality Not available.
Flu Activity Not available.
METAR KOGB 020553Z AUTO 00000KT 7SM CLR 23/22 A3009 RMK AO2 SLP186 T02330222 10283 20233 58001

10-Day Weather Forecast

×

Almanac

Astronomy

Sep. 02, 2015 Rise Set
Actual Time
Civil Twilight
Nautical Twilight
Astronomical Twilight
Moon
Length of Visible Light
Length of Day
Tomorrow will be .
, % of the Moon is Illuminated

Today's Extremes

State Highs State Lows

Community

WunderPhotos

Upload Photos

1,851,709 photos uploaded!

WunderBlogs® & News

Nearby

Air Quality

  Air Quality AQ Index Pollutant
Not available.

Snow Depth

Station Depth Elevation

Earthquake Activity

City Distance Mag. Time & Date
Minimum magnitude displayed is 2.5.

Coastal Water Temperatures

Place Temperature

Stations

Nearby Weather Stations

Station Location Temp. Windchill Dew Point Humidity Wind Precip. Elev Updated Type